Airfield :
LOGIN :

Register | Disclaimer

   EN    FR    IT 

 










Legend :    VFR   Marginal VFR   IFR   Intensive IFR   Very Intensive IFR
Visi :
Ceiling :
>= 8 km
>= 3000ft
5 to 8 km
1000 to 3000 ft
1500m to 5 km
500 to 1000 ft
800 to 1500m
200 to 500 ft
< 800m
< 200 ft
Symbols :   Thunderstorms  Fog  Heavy snow  Heavy precipitations  Wind > 20 kt
SIGMETs :     Misc.  Thunderstorms  Icing  Turbulence  Mountain Waves  Volcanic Ashes






- Airport Elevation : 1 ft


EGCK - Caernarfon

CURRENT METAR :
  • 220320Z AUTO 25012KT 210V270 9999 OVC026/// 11/06 Q1022

EXPIRED METARs :
  • 220250Z AUTO 16005KT 9999 BKN026/// OVC041/// 08/06 Q1022
  • 220220Z AUTO 16005KT 130V190 9999 OVC030/// 08/06 Q1022
  • 220150Z AUTO 18004KT 150V220 9999 BKN034/// 08/05 Q1022
  • 220120Z AUTO 16005KT 9999 OVC032/// 08/06 Q1022
  • 220050Z AUTO 16005KT 9999 OVC032/// 08/06 Q1022

TAF TAF EGCK
Valid from the 22 at 03:00 until the 22 at 12:00 UTC


220155Z 2203/2212 VRB03KT 9999 SCT035
PROB40
TEMPO 2203/2206 22010KT
BECMG 2206/2209 23010KT



MET'MAP, your aeronautical weather chart ! - Copyright ORBIFLY December 2007 - Disclaimer

ORBIFLY MET'MAP TEAM :

Programming & Development : Alexandra Zaïnal
Concept & Development : Baudouin d'Aumeries
Co-Development & Prog : Marc-Olivier Méhu
Technical & hardware support : Manuel Goepfert

Contact : metmap@orbifly.com




SOURCES & CREDITS :

   NOAA